sensor_id;sensor_type;location;lat;lon;timestamp;pressure;altitude;pressure_sealevel;temperature;humidity
70200;BME280;57587;55.688;37.600;2023-01-09T00:00:36;101105.44;;;-12.58;57.32
70200;BME280;57587;55.688;37.600;2023-01-09T00:03:03;101110.59;;;-12.38;57.03
70200;BME280;57587;55.688;37.600;2023-01-09T00:05:30;101112.28;;;-12.24;57.24
70200;BME280;57587;55.688;37.600;2023-01-09T00:07:57;101116.59;;;-12.34;56.77
70200;BME280;57587;55.688;37.600;2023-01-09T00:10:24;101111.41;;;-12.25;56.59
70200;BME280;57587;55.688;37.600;2023-01-09T00:12:51;101105.41;;;-12.39;56.43
70200;BME280;57587;55.688;37.600;2023-01-09T00:15:18;101108.00;;;-12.44;56.81
70200;BME280;57587;55.688;37.600;2023-01-09T00:17:45;101108.00;;;-12.47;56.13
70200;BME280;57587;55.688;37.600;2023-01-09T00:20:14;101110.59;;;-12.64;55.96
70200;BME280;57587;55.688;37.600;2023-01-09T00:22:41;101108.88;;;-12.77;57.20
70200;BME280;57587;55.688;37.600;2023-01-09T00:25:09;101116.63;;;-12.80;56.53
70200;BME280;57587;55.688;37.600;2023-01-09T00:27:36;101118.34;;;-12.74;56.19
70200;BME280;57587;55.688;37.600;2023-01-09T00:30:03;101118.31;;;-12.73;57.48
70200;BME280;57587;55.688;37.600;2023-01-09T00:32:31;101117.47;;;-12.73;57.06
70200;BME280;57587;55.688;37.600;2023-01-09T00:34:58;101112.31;;;-12.75;56.28
70200;BME280;57587;55.688;37.600;2023-01-09T00:37:25;101119.19;;;-12.77;56.80
70200;BME280;57587;55.688;37.600;2023-01-09T00:39:52;101116.63;;;-12.74;56.40
70200;BME280;57587;55.688;37.600;2023-01-09T00:42:21;101114.91;;;-12.84;56.97
70200;BME280;57587;55.688;37.600;2023-01-09T00:44:58;101115.75;;;-12.81;56.67
70200;BME280;57587;55.688;37.600;2023-01-09T00:47:53;101106.31;;;-12.80;56.27
70200;BME280;57587;55.688;37.600;2023-01-09T00:50:23;101113.16;;;-12.97;56.09
70200;BME280;57587;55.688;37.600;2023-01-09T00:52:55;101102.00;;;-12.96;56.73
70200;BME280;57587;55.688;37.600;2023-01-09T00:55:23;101095.97;;;-13.14;56.65
70200;BME280;57587;55.688;37.600;2023-01-09T00:57:50;101097.69;;;-13.19;56.94
70200;BME280;57587;55.688;37.600;2023-01-09T01:00:17;101091.66;;;-13.23;57.12
70200;BME280;57587;55.688;37.600;2023-01-09T01:02:44;101102.81;;;-13.46;57.25
70200;BME280;57587;55.688;37.600;2023-01-09T01:05:11;101095.88;;;-13.66;58.01
70200;BME280;57587;55.688;37.600;2023-01-09T01:07:57;101103.56;;;-13.74;58.15
70200;BME280;57587;55.688;37.600;2023-01-09T01:10:25;101096.69;;;-13.81;58.70
70200;BME280;57587;55.688;37.600;2023-01-09T01:12:52;101103.44;;;-14.04;58.68
70200;BME280;57587;55.688;37.600;2023-01-09T01:15:19;101103.38;;;-14.13;58.54
70200;BME280;57587;55.688;37.600;2023-01-09T01:17:47;101100.78;;;-14.21;58.93
70200;BME280;57587;55.688;37.600;2023-01-09T01:20:16;101111.88;;;-14.28;59.34
70200;BME280;57587;55.688;37.600;2023-01-09T01:22:44;101110.09;;;-14.38;59.16
70200;BME280;57587;55.688;37.600;2023-01-09T01:25:13;101107.56;;;-14.31;59.80
70200;BME280;57587;55.688;37.600;2023-01-09T01:27:43;101118.78;;;-14.24;58.78
70200;BME280;57587;55.688;37.600;2023-01-09T01:30:12;101121.31;;;-14.29;58.21
70200;BME280;57587;55.688;37.600;2023-01-09T01:32:39;101111.94;;;-14.16;58.58
70200;BME280;57587;55.688;37.600;2023-01-09T01:35:07;101129.09;;;-14.12;57.91
70200;BME280;57587;55.688;37.600;2023-01-09T01:37:35;101130.81;;;-14.12;57.70
70200;BME280;57587;55.688;37.600;2023-01-09T01:40:04;101126.47;;;-14.26;57.95
70200;BME280;57587;55.688;37.600;2023-01-09T01:42:31;101123.78;;;-14.44;58.34
70200;BME280;57587;55.688;37.600;2023-01-09T01:55:50;101136.56;;;-14.50;57.65
70200;BME280;57587;55.688;37.600;2023-01-09T01:58:21;101133.91;;;-14.70;57.65
70200;BME280;57587;55.688;37.600;2023-01-09T02:00:48;101143.47;;;-14.51;57.69
70200;BME280;57587;55.688;37.600;2023-01-09T02:03:18;101138.31;;;-14.46;57.63
70200;BME280;57587;55.688;37.600;2023-01-09T02:05:46;101132.34;;;-14.44;56.91
70200;BME280;57587;55.688;37.600;2023-01-09T02:08:13;101126.38;;;-14.43;56.93
70200;BME280;57587;55.688;37.600;2023-01-09T02:10:40;101134.03;;;-14.53;57.34
70200;BME280;57587;55.688;37.600;2023-01-09T02:13:08;101131.19;;;-14.85;57.96
70200;BME280;57587;55.688;37.600;2023-01-09T02:21:14;101139.72;;;-14.88;57.30
70200;BME280;57587;55.688;37.600;2023-01-09T02:42:40;101152.75;;;-15.52;57.81
70200;BME280;57587;55.688;37.600;2023-01-09T02:45:09;101152.06;;;-15.39;57.42
70200;BME280;57587;55.688;37.600;2023-01-09T02:47:44;101162.00;;;-15.68;57.72
70200;BME280;57587;55.688;37.600;2023-01-09T02:50:20;101150.19;;;-15.53;57.81
70200;BME280;57587;55.688;37.600;2023-01-09T03:03:39;101174.47;;;-15.97;57.67
70200;BME280;57587;55.688;37.600;2023-01-09T03:09:04;101178.03;;;-15.86;56.78
70200;BME280;57587;55.688;37.600;2023-01-09T03:11:39;101183.06;;;-15.92;56.84
70200;BME280;57587;55.688;37.600;2023-01-09T03:14:12;101167.84;;;-15.79;55.88
70200;BME280;57587;55.688;37.600;2023-01-09T03:16:44;101173.94;;;-15.71;56.15
70200;BME280;57587;55.688;37.600;2023-01-09T03:19:16;101183.06;;;-15.93;56.23
70200;BME280;57587;55.688;37.600;2023-01-09T03:21:45;101178.03;;;-15.86;56.92
70200;BME280;57587;55.688;37.600;2023-01-09T03:24:13;101175.06;;;-16.13;57.33
70200;BME280;57587;55.688;37.600;2023-01-09T03:26:41;101184.78;;;-15.94;57.10
70200;BME280;57587;55.688;37.600;2023-01-09T03:29:08;101188.16;;;-15.95;56.70
70200;BME280;57587;55.688;37.600;2023-01-09T03:31:36;101189.69;;;-16.09;57.35
70200;BME280;57587;55.688;37.600;2023-01-09T03:34:03;101185.59;;;-15.96;57.17
70200;BME280;57587;55.688;37.600;2023-01-09T03:36:30;101183.84;;;-15.99;57.41
70200;BME280;57587;55.688;37.600;2023-01-09T03:38:57;101188.41;;;-15.76;57.04
70200;BME280;57587;55.688;37.600;2023-01-09T03:41:24;101188.53;;;-15.69;56.40
70200;BME280;57587;55.688;37.600;2023-01-09T03:43:51;101191.91;;;-15.71;56.78
70200;BME280;57587;55.688;37.600;2023-01-09T03:46:18;101194.44;;;-15.76;56.87
70200;BME280;57587;55.688;37.600;2023-01-09T03:48:45;101195.06;;;-15.91;56.52
70200;BME280;57587;55.688;37.600;2023-01-09T03:51:12;101195.94;;;-15.90;57.21
70200;BME280;57587;55.688;37.600;2023-01-09T03:53:40;101200.25;;;-15.88;57.06
70200;BME280;57587;55.688;37.600;2023-01-09T03:56:07;101188.25;;;-15.89;57.71
70200;BME280;57587;55.688;37.600;2023-01-09T03:58:34;101189.03;;;-15.93;57.85
70200;BME280;57587;55.688;37.600;2023-01-09T04:01:04;101200.38;;;-15.78;58.37
70200;BME280;57587;55.688;37.600;2023-01-09T04:03:31;101189.28;;;-15.74;57.57
70200;BME280;57587;55.688;37.600;2023-01-09T04:05:58;101182.53;;;-15.68;56.89
70200;BME280;57587;55.688;37.600;2023-01-09T04:08:25;101193.78;;;-15.55;56.93
70200;BME280;57587;55.688;37.600;2023-01-09T04:10:52;101196.88;;;-15.85;56.60
70200;BME280;57587;55.688;37.600;2023-01-09T04:13:19;101195.97;;;-15.86;57.32
70200;BME280;57587;55.688;37.600;2023-01-09T04:15:46;101195.97;;;-15.86;57.35
70200;BME280;57587;55.688;37.600;2023-01-09T04:18:14;101192.75;;;-15.71;57.47
70200;BME280;57587;55.688;37.600;2023-01-09T04:20:41;101195.56;;;-15.51;56.84
70200;BME280;57587;55.688;37.600;2023-01-09T04:23:08;101198.09;;;-15.54;56.11
70200;BME280;57587;55.688;37.600;2023-01-09T04:25:35;101207.50;;;-15.53;55.78
70200;BME280;57587;55.688;37.600;2023-01-09T04:28:02;101214.53;;;-15.37;56.21
70200;BME280;57587;55.688;37.600;2023-01-09T04:30:30;101213.50;;;-15.54;56.10
70200;BME280;57587;55.688;37.600;2023-01-09T04:32:57;101211.94;;;-15.41;55.97
70200;BME280;57587;55.688;37.600;2023-01-09T04:35:24;101202.41;;;-15.50;55.95
70200;BME280;57587;55.688;37.600;2023-01-09T04:37:51;101214.63;;;-15.30;55.36
70200;BME280;57587;55.688;37.600;2023-01-09T04:40:18;101212.94;;;-15.28;54.70
70200;BME280;57587;55.688;37.600;2023-01-09T04:42:45;101216.88;;;-15.55;55.36
70200;BME280;57587;55.688;37.600;2023-01-09T04:45:14;101216.75;;;-15.69;55.61
70200;BME280;57587;55.688;37.600;2023-01-09T04:47:43;101217.78;;;-15.53;55.45
70200;BME280;57587;55.688;37.600;2023-01-09T04:50:11;101225.38;;;-15.58;54.82
70200;BME280;57587;55.688;37.600;2023-01-09T04:52:38;101231.06;;;-15.85;55.54
70200;BME280;57587;55.688;37.600;2023-01-09T04:55:06;101237.59;;;-16.05;56.83
70200;BME280;57587;55.688;37.600;2023-01-09T04:57:35;101233.53;;;-15.91;56.50
70200;BME280;57587;55.688;37.600;2023-01-09T05:00:03;101224.91;;;-15.97;56.26
70200;BME280;57587;55.688;37.600;2023-01-09T05:02:31;101230.84;;;-16.00;56.63
70200;BME280;57587;55.688;37.600;2023-01-09T05:04:58;101231.41;;;-16.16;56.73
70200;BME280;57587;55.688;37.600;2023-01-09T05:07:28;101231.56;;;-16.09;55.88
70200;BME280;57587;55.688;37.600;2023-01-09T05:09:55;101231.31;;;-16.25;57.32
70200;BME280;57587;55.688;37.600;2023-01-09T05:12:22;101230.22;;;-16.40;57.67
70200;BME280;57587;55.688;37.600;2023-01-09T05:14:49;101241.53;;;-16.27;57.08
70200;BME280;57587;55.688;37.600;2023-01-09T05:17:17;101240.81;;;-16.17;56.92
70200;BME280;57587;55.688;37.600;2023-01-09T05:19:45;101233.75;;;-16.33;56.94
70200;BME280;57587;55.688;37.600;2023-01-09T05:22:12;101229.22;;;-16.48;58.37
70200;BME280;57587;55.688;37.600;2023-01-09T05:24:39;101231.78;;;-16.48;58.45
70200;BME280;57587;55.688;37.600;2023-01-09T05:27:06;101234.53;;;-16.36;58.11
70200;BME280;57587;55.688;37.600;2023-01-09T05:29:33;101238.22;;;-16.20;57.98
70200;BME280;57587;55.688;37.600;2023-01-09T05:32:00;101242.81;;;-15.99;57.33
70200;BME280;57587;55.688;37.600;2023-01-09T05:34:27;101248.16;;;-15.84;57.73
70200;BME280;57587;55.688;37.600;2023-01-09T05:36:55;101251.81;;;-15.69;56.95
70200;BME280;57587;55.688;37.600;2023-01-09T05:39:22;101248.47;;;-15.59;55.57
70200;BME280;57587;55.688;37.600;2023-01-09T05:41:49;101253.53;;;-15.65;56.45
70200;BME280;57587;55.688;37.600;2023-01-09T05:44:16;101253.81;;;-15.42;56.26
70200;BME280;57587;55.688;37.600;2023-01-09T05:46:43;101263.97;;;-15.53;56.50
70200;BME280;57587;55.688;37.600;2023-01-09T05:49:10;101254.59;;;-15.49;55.72
70200;BME280;57587;55.688;37.600;2023-01-09T05:51:38;101258.88;;;-15.50;55.46
70200;BME280;57587;55.688;37.600;2023-01-09T05:54:05;101262.19;;;-15.57;56.30
70200;BME280;57587;55.688;37.600;2023-01-09T05:56:33;101270.69;;;-15.61;56.51
70200;BME280;57587;55.688;37.600;2023-01-09T05:59:00;101273.91;;;-15.77;55.97
70200;BME280;57587;55.688;37.600;2023-01-09T06:01:27;101275.81;;;-15.61;56.71
70200;BME280;57587;55.688;37.600;2023-01-09T06:03:54;101275.97;;;-15.49;56.34
70200;BME280;57587;55.688;37.600;2023-01-09T06:06:21;101275.97;;;-15.50;57.13
70200;BME280;57587;55.688;37.600;2023-01-09T06:08:50;101276.13;;;-15.38;56.29
70200;BME280;57587;55.688;37.600;2023-01-09T06:11:17;101276.84;;;-15.50;56.92
70200;BME280;57587;55.688;37.600;2023-01-09T06:13:44;101273.56;;;-15.38;56.85
70200;BME280;57587;55.688;37.600;2023-01-09T06:16:11;101275.16;;;-15.46;57.23
70200;BME280;57587;55.688;37.600;2023-01-09T06:18:39;101281.16;;;-15.47;57.17
70200;BME280;57587;55.688;37.600;2023-01-09T06:21:06;101283.75;;;-15.43;57.34
70200;BME280;57587;55.688;37.600;2023-01-09T06:23:33;101280.38;;;-15.42;57.25
70200;BME280;57587;55.688;37.600;2023-01-09T06:26:01;101294.97;;;-15.38;56.64
70200;BME280;57587;55.688;37.600;2023-01-09T06:28:28;101290.94;;;-15.19;57.34
70200;BME280;57587;55.688;37.600;2023-01-09T06:30:55;101291.66;;;-15.29;57.02
70200;BME280;57587;55.688;37.600;2023-01-09T06:33:23;101290.16;;;-15.13;56.50
70200;BME280;57587;55.688;37.600;2023-01-09T06:35:50;101291.84;;;-15.14;55.80
70200;BME280;57587;55.688;37.600;2023-01-09T06:38:17;101293.59;;;-15.08;56.38
70200;BME280;57587;55.688;37.600;2023-01-09T06:40:44;101293.53;;;-15.14;56.21
70200;BME280;57587;55.688;37.600;2023-01-09T06:43:12;101286.75;;;-15.09;56.44
70200;BME280;57587;55.688;37.600;2023-01-09T06:45:41;101296.91;;;-15.18;56.38
70200;BME280;57587;55.688;37.600;2023-01-09T06:48:09;101299.53;;;-15.15;55.90
70200;BME280;57587;55.688;37.600;2023-01-09T06:50:36;101308.66;;;-15.39;55.26
70200;BME280;57587;55.688;37.600;2023-01-09T06:53:03;101309.44;;;-15.43;56.28
70200;BME280;57587;55.688;37.600;2023-01-09T06:55:30;101314.72;;;-15.30;57.53
70200;BME280;57587;55.688;37.600;2023-01-09T06:57:57;101313.41;;;-14.99;56.21
70200;BME280;57587;55.688;37.600;2023-01-09T07:00:24;101324.50;;;-15.02;55.72
70200;BME280;57587;55.688;37.600;2023-01-09T07:02:53;101328.78;;;-15.02;55.43
70200;BME280;57587;55.688;37.600;2023-01-09T07:05:20;101322.78;;;-15.03;56.72
70200;BME280;57587;55.688;37.600;2023-01-09T07:07:47;101323.97;;;-14.76;55.71
70200;BME280;57587;55.688;37.600;2023-01-09T07:10:14;101330.72;;;-14.86;54.51
70200;BME280;57587;55.688;37.600;2023-01-09T07:12:42;101315.41;;;-14.77;54.36
70200;BME280;57587;55.688;37.600;2023-01-09T07:15:09;101326.47;;;-14.82;54.41
70200;BME280;57587;55.688;37.600;2023-01-09T07:17:36;101327.97;;;-15.00;54.29
70200;BME280;57587;55.688;37.600;2023-01-09T07:20:04;101325.72;;;-14.74;54.69
70200;BME280;57587;55.688;37.600;2023-01-09T07:22:31;101333.91;;;-15.04;53.98
70200;BME280;57587;55.688;37.600;2023-01-09T07:24:58;101333.09;;;-15.00;54.19
70200;BME280;57587;55.688;37.600;2023-01-09T07:27:25;101316.72;;;-15.08;54.89
70200;BME280;57587;55.688;37.600;2023-01-09T07:29:52;101330.69;;;-14.88;54.40
70200;BME280;57587;55.688;37.600;2023-01-09T07:32:20;101335.13;;;-14.74;54.42
70200;BME280;57587;55.688;37.600;2023-01-09T07:34:46;101332.50;;;-14.79;54.02
70200;BME280;57587;55.688;37.600;2023-01-09T07:37:15;101335.72;;;-14.98;54.29
70200;BME280;57587;55.688;37.600;2023-01-09T07:39:42;101335.66;;;-15.01;53.91
70200;BME280;57587;55.688;37.600;2023-01-09T07:42:10;101338.34;;;-14.91;54.17
70200;BME280;57587;55.688;37.600;2023-01-09T07:44:37;101338.94;;;-14.34;53.00
70200;BME280;57587;55.688;37.600;2023-01-09T07:47:04;101344.19;;;-14.26;51.93
70200;BME280;57587;55.688;37.600;2023-01-09T07:49:31;101348.94;;;-14.66;52.57
70200;BME280;57587;55.688;37.600;2023-01-09T07:51:58;101337.81;;;-14.62;52.13
70200;BME280;57587;55.688;37.600;2023-01-09T07:54:25;101352.94;;;-14.88;52.33
70200;BME280;57587;55.688;37.600;2023-01-09T07:56:52;101348.78;;;-14.78;52.70
70200;BME280;57587;55.688;37.600;2023-01-09T07:59:19;101343.06;;;-14.50;52.84
70200;BME280;57587;55.688;37.600;2023-01-09T08:01:46;101340.41;;;-13.63;51.31
70200;BME280;57587;55.688;37.600;2023-01-09T08:04:14;101349.00;;;-13.64;49.20
70200;BME280;57587;55.688;37.600;2023-01-09T08:06:41;101345.53;;;-13.66;49.22
70200;BME280;57587;55.688;37.600;2023-01-09T08:09:08;101344.53;;;-13.85;49.16
70200;BME280;57587;55.688;37.600;2023-01-09T08:11:36;101347.47;;;-14.39;49.82
70200;BME280;57587;55.688;37.600;2023-01-09T08:14:03;101340.59;;;-14.42;50.68
70200;BME280;57587;55.688;37.600;2023-01-09T08:16:30;101350.16;;;-14.30;49.89
70200;BME280;57587;55.688;37.600;2023-01-09T08:18:58;101345.63;;;-14.53;49.23
70200;BME280;57587;55.688;37.600;2023-01-09T08:21:25;101341.59;;;-14.25;49.10
70200;BME280;57587;55.688;37.600;2023-01-09T08:23:52;101340.53;;;-14.47;49.30
70200;BME280;57587;55.688;37.600;2023-01-09T08:26:20;101359.22;;;-14.66;50.04
70200;BME280;57587;55.688;37.600;2023-01-09T08:28:47;101352.13;;;-14.85;50.70
70200;BME280;57587;55.688;37.600;2023-01-09T08:31:14;101354.69;;;-14.85;50.71
70200;BME280;57587;55.688;37.600;2023-01-09T08:33:42;101357.22;;;-14.89;50.93
70200;BME280;57587;55.688;37.600;2023-01-09T08:36:09;101345.44;;;-14.73;51.43
70200;BME280;57587;55.688;37.600;2023-01-09T08:38:36;101345.88;;;-14.28;50.69
70200;BME280;57587;55.688;37.600;2023-01-09T08:41:04;101342.97;;;-13.67;48.69
70200;BME280;57587;55.688;37.600;2023-01-09T08:43:51;101341.66;;;-12.93;48.73
70200;BME280;57587;55.688;37.600;2023-01-09T08:46:37;101347.63;;;-13.01;46.19
70200;BME280;57587;55.688;37.600;2023-01-09T08:49:22;101345.56;;;-13.64;47.89
70200;BME280;57587;55.688;37.600;2023-01-09T08:51:49;101358.16;;;-13.97;47.62
70200;BME280;57587;55.688;37.600;2023-01-09T08:54:16;101340.13;;;-14.00;48.69
70200;BME280;57587;55.688;37.600;2023-01-09T08:56:44;101351.28;;;-13.98;48.21
70200;BME280;57587;55.688;37.600;2023-01-09T08:59:11;101351.81;;;-14.35;48.64
70200;BME280;57587;55.688;37.600;2023-01-09T09:01:38;101344.22;;;-14.23;48.75
70200;BME280;57587;55.688;37.600;2023-01-09T09:04:06;101340.03;;;-14.10;49.56
70200;BME280;57587;55.688;37.600;2023-01-09T09:06:33;101340.09;;;-14.03;48.40
70200;BME280;57587;55.688;37.600;2023-01-09T09:09:01;101356.16;;;-14.28;48.34
70200;BME280;57587;55.688;37.600;2023-01-09T09:11:29;101356.53;;;-14.75;49.15
70200;BME280;57587;55.688;37.600;2023-01-09T09:13:57;101342.63;;;-14.91;50.25
70200;BME280;57587;55.688;37.600;2023-01-09T09:16:24;101339.47;;;-14.70;50.33
70200;BME280;57587;55.688;37.600;2023-01-09T09:18:52;101326.97;;;-14.33;49.66
70200;BME280;57587;55.688;37.600;2023-01-09T09:21:19;101331.16;;;-14.40;49.51
70200;BME280;57587;55.688;37.600;2023-01-09T09:23:46;101320.28;;;-14.14;49.68
70200;BME280;57587;55.688;37.600;2023-01-09T09:26:14;101313.28;;;-14.29;49.69
70200;BME280;57587;55.688;37.600;2023-01-09T09:28:41;101330.00;;;-14.71;50.56
70200;BME280;57587;55.688;37.600;2023-01-09T09:31:08;101329.91;;;-14.80;50.82
70200;BME280;57587;55.688;37.600;2023-01-09T09:33:35;101328.81;;;-14.99;51.37
70200;BME280;57587;55.688;37.600;2023-01-09T09:36:02;101337.47;;;-14.94;52.16
70200;BME280;57587;55.688;37.600;2023-01-09T09:38:29;101340.06;;;-14.90;52.00
70200;BME280;57587;55.688;37.600;2023-01-09T09:41:13;101344.94;;;-15.11;51.95
70200;BME280;57587;55.688;37.600;2023-01-09T09:55:42;101341.22;;;-15.92;54.00
70200;BME280;57587;55.688;37.600;2023-01-09T09:58:21;101333.22;;;-16.11;54.19
70200;BME280;57587;55.688;37.600;2023-01-09T10:00:52;101343.25;;;-15.71;53.84
70200;BME280;57587;55.688;37.600;2023-01-09T10:03:30;101339.66;;;-15.84;53.98
70200;BME280;57587;55.688;37.600;2023-01-09T10:06:06;101340.16;;;-16.05;54.72
70200;BME280;57587;55.688;37.600;2023-01-09T10:14:38;101337.72;;;-15.97;54.52
70200;BME280;57587;55.688;37.600;2023-01-09T10:25:33;101355.88;;;-15.84;54.26
70200;BME280;57587;55.688;37.600;2023-01-09T10:39:23;101361.38;;;-14.98;51.12
70200;BME280;57587;55.688;37.600;2023-01-09T10:42:21;101359.16;;;-14.69;51.02
70200;BME280;57587;55.688;37.600;2023-01-09T10:44:55;101366.00;;;-14.71;50.49
70200;BME280;57587;55.688;37.600;2023-01-09T10:47:32;101364.22;;;-14.75;50.16
70200;BME280;57587;55.688;37.600;2023-01-09T10:52:49;101363.69;;;-15.18;51.28
70200;BME280;57587;55.688;37.600;2023-01-09T10:55:37;101365.72;;;-14.93;51.78
70200;BME280;57587;55.688;37.600;2023-01-09T10:58:17;101360.16;;;-15.26;51.74
70200;BME280;57587;55.688;37.600;2023-01-09T11:00:46;101358.50;;;-15.21;51.92
70200;BME280;57587;55.688;37.600;2023-01-09T11:03:18;101363.59;;;-15.24;51.95
70200;BME280;57587;55.688;37.600;2023-01-09T11:05:51;101354.84;;;-15.39;51.46
70200;BME280;57587;55.688;37.600;2023-01-09T11:08:39;101360.84;;;-15.38;51.68
70200;BME280;57587;55.688;37.600;2023-01-09T11:11:08;101358.38;;;-15.30;52.69
70200;BME280;57587;55.688;37.600;2023-01-09T11:13:36;101361.28;;;-15.65;52.97
70200;BME280;57587;55.688;37.600;2023-01-09T11:18:38;101362.94;;;-15.70;52.57
70200;BME280;57587;55.688;37.600;2023-01-09T11:23:41;101367.38;;;-15.59;53.17
70200;BME280;57587;55.688;37.600;2023-01-09T11:26:23;101364.88;;;-15.54;53.11
70200;BME280;57587;55.688;37.600;2023-01-09T11:29:12;101364.31;;;-15.35;53.64
70200;BME280;57587;55.688;37.600;2023-01-09T11:31:41;101368.72;;;-15.24;52.57
70200;BME280;57587;55.688;37.600;2023-01-09T11:34:17;101369.41;;;-15.36;52.90
70200;BME280;57587;55.688;37.600;2023-01-09T11:36:45;101377.53;;;-15.65;52.79
70200;BME280;57587;55.688;37.600;2023-01-09T11:39:25;101379.63;;;-15.97;54.69
70200;BME280;57587;55.688;37.600;2023-01-09T11:42:22;101366.78;;;-15.97;55.16
70200;BME280;57587;55.688;37.600;2023-01-09T11:45:31;101366.94;;;-15.88;55.08
70200;BME280;57587;55.688;37.600;2023-01-09T11:48:00;101367.06;;;-15.80;54.86
70200;BME280;57587;55.688;37.600;2023-01-09T11:50:30;101374.97;;;-15.66;54.92
70200;BME280;57587;55.688;37.600;2023-01-09T11:53:16;101365.56;;;-15.64;54.51
70200;BME280;57587;55.688;37.600;2023-01-09T11:55:46;101371.69;;;-15.56;54.49
70200;BME280;57587;55.688;37.600;2023-01-09T11:58:16;101368.97;;;-15.65;54.12
70200;BME280;57587;55.688;37.600;2023-01-09T12:01:08;101361.34;;;-15.62;54.78
70200;BME280;57587;55.688;37.600;2023-01-09T12:04:20;101365.59;;;-15.63;54.97
70200;BME280;57587;55.688;37.600;2023-01-09T12:10:19;101370.88;;;-15.53;54.98
70200;BME280;57587;55.688;37.600;2023-01-09T12:13:12;101374.81;;;-15.77;55.29
70200;BME280;57587;55.688;37.600;2023-01-09T12:27:19;101404.41;;;-16.43;57.75
70200;BME280;57587;55.688;37.600;2023-01-09T12:30:00;101377.13;;;-16.41;58.61
70200;BME280;57587;55.688;37.600;2023-01-09T12:32:38;101378.09;;;-16.34;57.67
70200;BME280;57587;55.688;37.600;2023-01-09T12:46:06;101371.97;;;-16.42;58.48
70200;BME280;57587;55.688;37.600;2023-01-09T12:59:38;101379.16;;;-16.67;59.45
70200;BME280;57587;55.688;37.600;2023-01-09T13:04:51;101384.56;;;-16.53;60.05
70200;BME280;57587;55.688;37.600;2023-01-09T13:07:25;101390.63;;;-16.48;58.70
70200;BME280;57587;55.688;37.600;2023-01-09T13:12:28;101405.75;;;-16.60;59.88
70200;BME280;57587;55.688;37.600;2023-01-09T13:15:04;101413.16;;;-16.77;60.25
70200;BME280;57587;55.688;37.600;2023-01-09T13:17:39;101406.00;;;-16.92;60.61
70200;BME280;57587;55.688;37.600;2023-01-09T13:20:49;101402.72;;;-16.85;60.37
70200;BME280;57587;55.688;37.600;2023-01-09T13:26:41;101410.13;;;-16.56;60.33
70200;BME280;57587;55.688;37.600;2023-01-09T13:29:14;101415.28;;;-16.55;59.36
70200;BME280;57587;55.688;37.600;2023-01-09T13:35:12;101414.03;;;-16.74;60.32
70200;BME280;57587;55.688;37.600;2023-01-09T13:37:41;101418.28;;;-16.76;60.92
70200;BME280;57587;55.688;37.600;2023-01-09T13:43:03;101413.88;;;-16.84;60.04
70200;BME280;57587;55.688;37.600;2023-01-09T13:45:33;101421.41;;;-16.90;60.63
70200;BME280;57587;55.688;37.600;2023-01-09T13:50:45;101427.00;;;-17.07;60.76
70200;BME280;57587;55.688;37.600;2023-01-09T14:06:36;101431.75;;;-17.24;61.60
70200;BME280;57587;55.688;37.600;2023-01-09T14:09:21;101434.31;;;-17.24;61.55
70200;BME280;57587;55.688;37.600;2023-01-09T14:12:04;101421.88;;;-17.08;61.29
70200;BME280;57587;55.688;37.600;2023-01-09T14:14:32;101430.09;;;-16.84;60.77
70200;BME280;57587;55.688;37.600;2023-01-09T14:17:00;101425.44;;;-17.00;60.98
70200;BME280;57587;55.688;37.600;2023-01-09T14:19:37;101415.59;;;-16.82;60.75
70200;BME280;57587;55.688;37.600;2023-01-09T14:22:06;101441.34;;;-16.76;60.75
70200;BME280;57587;55.688;37.600;2023-01-09T14:24:42;101429.41;;;-16.72;59.91
70200;BME280;57587;55.688;37.600;2023-01-09T14:28:16;101413.94;;;-16.80;60.45
70200;BME280;57587;55.688;37.600;2023-01-09T14:43:50;101427.34;;;-17.31;60.92
70200;BME280;57587;55.688;37.600;2023-01-09T14:46:19;101445.38;;;-17.25;61.12
70200;BME280;57587;55.688;37.600;2023-01-09T14:48:58;101426.56;;;-17.27;61.09
70200;BME280;57587;55.688;37.600;2023-01-09T14:51:28;101440.22;;;-17.28;60.61
70200;BME280;57587;55.688;37.600;2023-01-09T14:53:58;101433.19;;;-17.35;61.17
70200;BME280;57587;55.688;37.600;2023-01-09T14:56:30;101436.38;;;-17.07;60.90
70200;BME280;57587;55.688;37.600;2023-01-09T14:59:13;101431.97;;;-17.14;60.62
70200;BME280;57587;55.688;37.600;2023-01-09T15:01:44;101443.06;;;-17.14;60.69
70200;BME280;57587;55.688;37.600;2023-01-09T15:06:52;101444.22;;;-17.01;59.95
70200;BME280;57587;55.688;37.600;2023-01-09T15:09:31;101445.13;;;-16.99;60.38
70200;BME280;57587;55.688;37.600;2023-01-09T15:12:17;101442.06;;;-16.83;59.99
70200;BME280;57587;55.688;37.600;2023-01-09T15:14:50;101438.97;;;-16.65;59.47
70200;BME280;57587;55.688;37.600;2023-01-09T15:17:24;101449.88;;;-16.77;59.66
70200;BME280;57587;55.688;37.600;2023-01-09T15:19:53;101435.38;;;-16.75;58.83
70200;BME280;57587;55.688;37.600;2023-01-09T15:24:55;101454.75;;;-17.25;59.80
70200;BME280;57587;55.688;37.600;2023-01-09T15:27:23;101458.78;;;-17.35;60.74
70200;BME280;57587;55.688;37.600;2023-01-09T15:29:51;101444.34;;;-17.33;60.47
70200;BME280;57587;55.688;37.600;2023-01-09T15:32:27;101462.09;;;-17.39;60.78
70200;BME280;57587;55.688;37.600;2023-01-09T15:34:56;101432.88;;;-17.49;60.79
70200;BME280;57587;55.688;37.600;2023-01-09T15:39:54;101429.75;;;-17.37;61.26
70200;BME280;57587;55.688;37.600;2023-01-09T15:42:25;101420.81;;;-17.18;60.48
70200;BME280;57587;55.688;37.600;2023-01-09T15:45:29;101424.38;;;-17.11;60.53
70200;BME280;57587;55.688;37.600;2023-01-09T15:48:27;101425.44;;;-17.38;60.25
70200;BME280;57587;55.688;37.600;2023-01-09T15:51:08;101432.03;;;-17.11;60.83